createdAt,value
2023-03-16T00:02:01.323Z,95646.84
2023-03-16T00:04:27.952Z,95643.94
2023-03-16T00:06:54.399Z,95649.63
2023-03-16T00:09:20.862Z,95659.75
2023-03-16T00:11:47.307Z,95656.06
2023-03-16T00:14:13.724Z,95659.63
2023-03-16T00:16:40.229Z,95653.44
2023-03-16T00:19:06.730Z,95654.47
2023-03-16T00:21:35.240Z,95657.09
2023-03-16T00:24:03.868Z,95650.81
2023-03-16T00:26:31.846Z,95647.72
2023-03-16T00:28:58.317Z,95658.66
2023-03-16T00:31:25.241Z,95653.38
2023-03-16T00:33:51.785Z,95648.16
2023-03-16T00:36:18.262Z,95642.56
2023-03-16T00:38:45.227Z,95644.03
2023-03-16T00:41:14.337Z,95638.97
2023-03-16T00:43:41.868Z,95642.56
2023-03-16T00:46:09.262Z,95655.34
2023-03-16T00:48:36.591Z,95653.38
2023-03-16T00:51:06.283Z,95654.22
2023-03-16T00:53:36.677Z,95654.69
2023-03-16T00:56:04.494Z,95653.38
2023-03-16T00:58:36.033Z,95651.41
2023-03-16T01:01:22.894Z,95664.03
2023-03-16T01:03:49.426Z,95652.94
2023-03-16T01:06:17.159Z,95658.50
2023-03-16T01:08:44.265Z,95661.28
2023-03-16T01:11:12.391Z,95673.09
2023-03-16T01:13:39.241Z,95662.63
2023-03-16T01:16:06.742Z,95659.72
2023-03-16T01:18:35.878Z,95670.19
2023-03-16T01:21:03.775Z,95670.31
2023-03-16T01:23:31.421Z,95671.81
2023-03-16T01:25:58.584Z,95671.19
2023-03-16T01:28:26.124Z,95669.69
2023-03-16T01:30:57.613Z,95669.84
2023-03-16T01:33:25.654Z,95678.34
2023-03-16T01:35:59.911Z,95679.47
2023-03-16T01:38:26.779Z,95670.84
2023-03-16T01:40:54.085Z,95681.13
2023-03-16T01:43:21.938Z,95681.63
2023-03-16T01:46:06.847Z,95680.16
2023-03-16T01:48:40.042Z,95682.63
2023-03-16T01:51:08.282Z,95690.16
2023-03-16T01:53:34.861Z,95698.03
2023-03-16T01:56:03.289Z,95690.50
2023-03-16T01:58:31.674Z,95684.56
2023-03-16T02:01:07.428Z,95696.53
2023-03-16T02:03:36.983Z,95693.41
2023-03-16T02:06:03.632Z,95698.66
2023-03-16T02:08:31.667Z,95692.13
2023-03-16T02:10:58.744Z,95698.38
2023-03-16T02:13:26.285Z,95701.00
2023-03-16T02:15:53.694Z,95696.91
2023-03-16T02:18:23.093Z,95703.97
2023-03-16T02:21:16.414Z,95703.13
2023-03-16T02:23:44.405Z,95705.91
2023-03-16T02:26:17.029Z,95705.44
2023-03-16T02:28:54.138Z,95697.91
2023-03-16T02:31:22.383Z,95704.78
2023-03-16T02:33:50.856Z,95705.94
2023-03-16T02:36:18.641Z,95707.06
2023-03-16T02:38:46.537Z,95712.63
2023-03-16T02:41:20.139Z,95716.38
2023-03-16T02:43:58.618Z,95709.84
2023-03-16T02:46:27.080Z,95712.47
2023-03-16T02:48:59.082Z,95711.81
2023-03-16T02:51:25.547Z,95716.88
2023-03-16T02:53:52.035Z,95720.13
2023-03-16T02:56:18.492Z,95721.47
2023-03-16T02:58:44.931Z,95720.63
2023-03-16T03:01:11.527Z,95719.66
2023-03-16T03:03:38.114Z,95727.81
2023-03-16T03:06:04.839Z,95728.44
2023-03-16T03:08:33.008Z,95733.84
2023-03-16T03:10:59.521Z,95744.78
2023-03-16T03:13:26.343Z,95748.41
2023-03-16T03:15:52.861Z,95758.50
2023-03-16T03:18:19.536Z,95749.84
2023-03-16T03:20:45.972Z,95762.72
2023-03-16T03:23:12.566Z,95760.75
2023-03-16T03:25:39.142Z,95767.78
2023-03-16T03:28:05.795Z,95771.06
2023-03-16T03:30:32.567Z,95772.56
2023-03-16T03:32:59.041Z,95769.25
2023-03-16T03:35:25.706Z,95772.53
2023-03-16T03:37:52.248Z,95777.44
2023-03-16T03:40:19.491Z,95770.91
2023-03-16T03:42:46.423Z,95771.75
2023-03-16T03:45:13.477Z,95781.38
2023-03-16T03:47:40.664Z,95777.09
2023-03-16T03:50:07.421Z,95785.41
2023-03-16T03:52:33.890Z,95791.13
2023-03-16T03:55:00.538Z,95791.91
2023-03-16T03:57:26.972Z,95802.53
2023-03-16T03:59:53.413Z,95800.84
2023-03-16T04:02:19.937Z,95790.06
2023-03-16T04:04:46.456Z,95811.59
2023-03-16T04:07:13.006Z,95809.31
2023-03-16T04:09:39.510Z,95825.78
2023-03-16T04:12:06.307Z,95815.84
2023-03-16T04:14:33.109Z,95814.53
2023-03-16T04:16:59.703Z,95802.31
2023-03-16T04:19:26.342Z,95812.63
2023-03-16T04:21:53.128Z,95814.91
2023-03-16T04:24:19.758Z,95816.91
2023-03-16T04:26:46.706Z,95822.56
2023-03-16T04:29:18.327Z,95821.91
2023-03-16T04:31:45.423Z,95833.81
2023-03-16T04:34:11.874Z,95839.03
2023-03-16T04:36:39.058Z,95835.78
2023-03-16T04:39:05.946Z,95832.50
2023-03-16T04:41:32.827Z,95828.28
2023-03-16T04:43:59.275Z,95830.41
2023-03-16T04:46:26.898Z,95838.72
2023-03-16T04:48:54.037Z,95842.06
2023-03-16T04:51:21.568Z,95848.13
2023-03-16T04:53:48.174Z,95837.03
2023-03-16T04:56:19.640Z,95841.00
2023-03-16T04:58:47.149Z,95847.53
2023-03-16T05:01:13.685Z,95846.75
2023-03-16T05:03:40.489Z,95847.25
2023-03-16T05:06:09.970Z,95852.28
2023-03-16T05:08:36.632Z,95848.19
2023-03-16T05:11:03.077Z,95859.94
2023-03-16T05:13:29.533Z,95866.97
2023-03-16T05:15:56.076Z,95866.22
2023-03-16T05:18:22.605Z,95867.50
2023-03-16T05:20:53.512Z,95872.22
2023-03-16T05:23:20.442Z,95880.88
2023-03-16T05:25:47.376Z,95872.03
2023-03-16T05:28:15.071Z,95868.13
2023-03-16T05:30:42.327Z,95873.97
2023-03-16T05:33:08.996Z,95878.66
2023-03-16T05:35:35.632Z,95888.94
2023-03-16T05:38:02.785Z,95888.75
2023-03-16T05:40:29.966Z,95886.63
2023-03-16T05:42:57.406Z,95895.72
2023-03-16T05:45:24.309Z,95899.16
2023-03-16T05:47:50.788Z,95896.34
2023-03-16T05:50:17.609Z,95907.69
2023-03-16T05:52:44.684Z,95910.78
2023-03-16T05:55:12.089Z,95908.38
2023-03-16T05:57:38.532Z,95906.78
2023-03-16T06:00:14.675Z,95913.31
2023-03-16T06:02:46.962Z,95907.19
2023-03-16T06:05:13.577Z,95913.44
2023-03-16T06:07:40.118Z,95920.28
2023-03-16T06:10:06.869Z,95923.56
2023-03-16T06:12:34.602Z,95931.69
2023-03-16T06:15:02.050Z,95940.81
2023-03-16T06:17:28.542Z,95939.19
2023-03-16T06:19:55.177Z,95929.63
2023-03-16T06:22:21.709Z,95946.13
2023-03-16T06:24:48.304Z,95947.75
2023-03-16T06:27:14.752Z,95940.44
2023-03-16T06:29:41.326Z,95957.56
2023-03-16T06:32:07.792Z,95948.16
2023-03-16T06:34:35.856Z,95954.19
2023-03-16T06:37:04.088Z,95963.47
2023-03-16T06:39:30.938Z,95959.06
2023-03-16T06:41:57.944Z,95964.97
2023-03-16T06:44:24.582Z,95963.47
2023-03-16T06:46:51.125Z,95974.38
2023-03-16T06:49:17.580Z,95985.41
2023-03-16T06:51:43.996Z,95978.25
2023-03-16T06:54:10.438Z,95980.59
2023-03-16T06:56:36.928Z,95993.66
2023-03-16T06:59:03.456Z,95993.41
2023-03-16T07:01:30.355Z,95990.38
2023-03-16T07:03:56.890Z,96000.19
2023-03-16T07:06:23.384Z,95995.13
2023-03-16T07:08:49.893Z,95996.09
2023-03-16T07:11:16.389Z,96006.56
2023-03-16T07:13:42.909Z,95997.06
2023-03-16T07:16:09.390Z,96004.72
2023-03-16T07:18:38.034Z,96014.91
2023-03-16T07:21:04.623Z,95999.88
2023-03-16T07:23:32.370Z,96005.94
2023-03-16T07:25:58.874Z,96009.22
2023-03-16T07:28:25.386Z,96011.19
2023-03-16T07:31:03.009Z,96017.41
2023-03-16T07:33:32.325Z,96014.31
2023-03-16T07:35:59.361Z,96018.13
2023-03-16T07:38:25.895Z,96023.34
2023-03-16T07:40:52.402Z,96024.38
2023-03-16T07:43:19.363Z,96019.91
2023-03-16T07:45:49.943Z,96017.28
2023-03-16T07:48:17.113Z,96025.22
2023-03-16T07:50:43.711Z,96033.78
2023-03-16T07:53:10.582Z,96031.84
2023-03-16T07:55:38.912Z,96038.72
2023-03-16T07:58:06.262Z,96038.13
2023-03-16T08:00:33.465Z,96022.44
2023-03-16T08:03:00.228Z,96026.16
2023-03-16T08:05:27.875Z,96036.16
2023-03-16T08:07:57.409Z,96037.16
2023-03-16T08:10:24.505Z,96042.13
2023-03-16T08:12:51.703Z,96036.53
2023-03-16T08:15:18.535Z,96034.91
2023-03-16T08:17:45.680Z,96036.75
2023-03-16T08:20:14.785Z,96045.16
2023-03-16T08:22:42.257Z,96040.94
2023-03-16T08:25:11.811Z,96036.72
2023-03-16T08:27:38.603Z,96042.00
2023-03-16T08:30:06.167Z,96047.56
2023-03-16T08:32:33.176Z,96043.66
2023-03-16T08:35:00.652Z,96035.66
2023-03-16T08:37:27.679Z,96041.41
2023-03-16T08:39:54.379Z,96052.81
2023-03-16T08:42:21.193Z,96050.56
2023-03-16T08:44:48.071Z,96059.75
2023-03-16T08:47:15.038Z,96050.56
2023-03-16T08:49:41.466Z,96065.63
2023-03-16T08:52:10.382Z,96059.56
2023-03-16T08:54:37.025Z,96066.91
2023-03-16T08:57:03.605Z,96070.56
2023-03-16T08:59:30.772Z,96069.88
2023-03-16T09:01:57.822Z,96071.22
2023-03-16T09:04:24.435Z,96067.94
2023-03-16T09:07:09.890Z,96074.59
2023-03-16T09:09:37.162Z,96058.47
2023-03-16T09:12:04.388Z,96068.16
2023-03-16T09:14:30.928Z,96081.78
2023-03-16T09:16:57.517Z,96083.72
2023-03-16T09:19:25.041Z,96077.13
2023-03-16T09:21:51.535Z,96068.50
2023-03-16T09:24:17.989Z,96082.44
2023-03-16T09:26:45.333Z,96073.78
2023-03-16T09:29:12.037Z,96079.69
2023-03-16T09:31:38.556Z,96070.88
2023-03-16T09:34:05.145Z,96093.94
2023-03-16T09:36:31.578Z,96099.84
2023-03-16T09:38:58.076Z,96087.75
2023-03-16T09:41:43.465Z,96088.22
2023-03-16T09:44:26.272Z,96093.59
2023-03-16T09:46:53.310Z,96102.13
2023-03-16T09:49:21.097Z,96083.31
2023-03-16T09:52:10.847Z,96096.06
2023-03-16T09:54:40.387Z,96093.47
2023-03-16T09:57:15.428Z,96085.97
2023-03-16T09:59:42.258Z,96101.50
2023-03-16T10:02:28.937Z,96109.53
2023-03-16T10:05:14.781Z,96095.28
2023-03-16T10:07:41.589Z,96113.28
2023-03-16T10:10:11.125Z,96113.78
2023-03-16T10:12:41.547Z,96111.81
2023-03-16T10:15:14.629Z,96111.16
2023-03-16T10:17:46.226Z,96101.50
2023-03-16T10:20:18.602Z,96101.69
2023-03-16T10:22:46.246Z,96098.25
2023-03-16T10:25:35.644Z,96114.50
2023-03-16T10:28:02.216Z,96105.78
2023-03-16T10:30:38.724Z,96117.75
2023-03-16T10:33:18.262Z,96117.41
2023-03-16T10:35:49.888Z,96123.97
2023-03-16T10:38:27.183Z,96121.19
2023-03-16T10:40:53.990Z,96129.53
2023-03-16T10:43:20.816Z,96114.66
2023-03-16T10:45:47.305Z,96119.22
2023-03-16T10:48:15.414Z,96112.19
2023-03-16T10:50:43.118Z,96128.75
2023-03-16T10:53:25.406Z,96118.25
2023-03-16T10:55:57.265Z,96120.88
2023-03-16T10:58:30.792Z,96118.59
2023-03-16T11:00:57.409Z,96112.34
2023-03-16T11:03:28.894Z,96120.56
2023-03-16T11:06:00.704Z,96115.31
2023-03-16T11:08:28.239Z,96116.94
2023-03-16T11:10:59.143Z,96116.94
2023-03-16T11:13:32.189Z,96118.91
2023-03-16T11:16:17.421Z,96117.09
2023-03-16T11:18:45.339Z,96116.28
2023-03-16T11:21:27.506Z,96120.88
2023-03-16T11:23:56.071Z,96108.91
2023-03-16T11:26:25.762Z,96118.91
2023-03-16T11:28:56.479Z,96109.38
2023-03-16T11:31:40.457Z,96113.00
2023-03-16T11:34:15.520Z,96119.22
2023-03-16T11:36:49.662Z,96099.84
2023-03-16T11:39:45.730Z,96102.09
2023-03-16T11:42:27.814Z,96114.88
2023-03-16T11:45:12.786Z,96109.97
2023-03-16T11:47:58.209Z,96116.88
2023-03-16T11:50:36.331Z,96109.34
2023-03-16T11:53:15.015Z,96097.22
2023-03-16T11:55:47.693Z,96117.72
2023-03-16T11:58:32.716Z,96112.97
2023-03-16T12:01:14.367Z,96104.53
2023-03-16T12:04:10.365Z,96107.13
2023-03-16T12:06:41.908Z,96120.06
2023-03-16T12:09:08.401Z,96120.72
2023-03-16T12:11:42.479Z,96124.72
2023-03-16T12:14:30.851Z,96113.88
2023-03-16T12:17:17.546Z,96104.22
2023-03-16T12:19:54.055Z,96094.53
2023-03-16T12:22:22.840Z,96110.38
2023-03-16T12:24:49.406Z,96108.84
2023-03-16T12:27:17.797Z,96105.50
2023-03-16T12:29:47.120Z,96107.50
2023-03-16T12:32:18.900Z,96116.41
2023-03-16T12:34:53.393Z,96127.44
2023-03-16T12:37:27.596Z,96111.84
2023-03-16T12:39:54.018Z,96117.78
2023-03-16T12:42:26.534Z,96107.28
2023-03-16T12:45:13.345Z,96113.66
2023-03-16T12:47:57.128Z,96107.84
2023-03-16T12:50:24.507Z,96102.16
2023-03-16T12:52:52.247Z,96112.59
2023-03-16T12:55:20.329Z,96101.38
2023-03-16T12:57:48.897Z,96127.00
2023-03-16T13:00:16.356Z,96117.41
2023-03-16T13:02:44.957Z,96127.13
2023-03-16T13:05:15.785Z,96132.50
2023-03-16T13:07:52.643Z,96138.47
2023-03-16T13:10:21.083Z,96128.47
2023-03-16T13:12:48.038Z,96121.09
2023-03-16T13:15:17.758Z,96117.59
2023-03-16T13:17:44.360Z,96132.72
2023-03-16T13:20:27.690Z,96132.41
2023-03-16T13:23:19.037Z,96117.28
2023-03-16T13:25:58.112Z,96108.38
2023-03-16T13:28:28.017Z,96115.59
2023-03-16T13:30:54.532Z,96120.50
2023-03-16T13:33:21.888Z,96120.97
2023-03-16T13:35:49.709Z,96126.75
2023-03-16T13:38:17.294Z,96130.88
2023-03-16T13:40:48.009Z,96126.47
2023-03-16T13:43:19.118Z,96133.38
2023-03-16T13:45:45.875Z,96138.81
2023-03-16T13:48:16.326Z,96130.41
2023-03-16T13:50:43.375Z,96124.50
2023-03-16T13:53:17.251Z,96122.78
2023-03-16T13:55:45.435Z,96128.31
2023-03-16T13:58:20.683Z,96128.31
2023-03-16T14:00:47.225Z,96138.34
2023-03-16T14:03:16.257Z,96141.38
2023-03-16T14:05:42.841Z,96133.22
2023-03-16T14:08:20.070Z,96127.00
2023-03-16T14:10:47.062Z,96135.66
2023-03-16T14:13:25.810Z,96145.06
2023-03-16T14:15:56.575Z,96140.97
2023-03-16T14:18:25.646Z,96138.66
2023-03-16T14:20:53.085Z,96130.75
2023-03-16T14:23:24.722Z,96132.84
2023-03-16T14:25:53.575Z,96128.38
2023-03-16T14:28:22.384Z,96135.97
2023-03-16T14:30:53.295Z,96148.78
2023-03-16T14:33:30.053Z,96157.88
2023-03-16T14:35:58.122Z,96145.09
2023-03-16T14:38:32.922Z,96150.53
2023-03-16T14:41:11.838Z,96146.59
2023-03-16T14:43:48.752Z,96142.50
2023-03-16T14:46:19.644Z,96148.22
2023-03-16T14:48:46.144Z,96146.91
2023-03-16T14:51:14.121Z,96144.59
2023-03-16T14:53:40.912Z,96141.34
2023-03-16T14:56:16.589Z,96152.81
2023-03-16T14:58:43.009Z,96147.22
2023-03-16T15:01:18.022Z,96144.91
2023-03-16T15:03:45.142Z,96149.53
2023-03-16T15:06:11.684Z,96154.13
2023-03-16T15:08:44.319Z,96148.75
2023-03-16T15:11:10.917Z,96147.56
2023-03-16T15:13:47.116Z,96154.47
2023-03-16T15:16:14.421Z,96153.19
2023-03-16T15:18:42.021Z,96152.34
2023-03-16T15:21:12.916Z,96156.63
2023-03-16T15:23:40.353Z,96177.13
2023-03-16T15:26:07.749Z,96174.34
2023-03-16T15:28:34.625Z,96180.13
2023-03-16T15:31:02.359Z,96177.81
2023-03-16T15:33:29.112Z,96179.78
2023-03-16T15:35:57.131Z,96184.38
2023-03-16T15:38:34.756Z,96191.91
2023-03-16T15:41:01.240Z,96191.25
2023-03-16T15:43:29.017Z,96192.06
2023-03-16T15:45:56.016Z,96193.09
2023-03-16T15:48:24.585Z,96190.28
2023-03-16T15:51:02.055Z,96190.75
2023-03-16T15:53:36.883Z,96195.88
2023-03-16T15:56:05.958Z,96190.94
2023-03-16T15:58:34.178Z,96196.50
2023-03-16T16:01:01.826Z,96204.91
2023-03-16T16:03:28.408Z,96208.03
2023-03-16T16:05:55.065Z,96198.50
2023-03-16T16:08:21.570Z,96218.03
2023-03-16T16:10:48.746Z,96206.38
2023-03-16T16:13:43.054Z,96204.91
2023-03-16T16:16:15.121Z,96215.09
2023-03-16T16:18:42.812Z,96216.38
2023-03-16T16:21:15.179Z,96220.16
2023-03-16T16:23:41.678Z,96231.34
2023-03-16T16:26:23.295Z,96228.22
2023-03-16T16:28:49.811Z,96226.91
2023-03-16T16:31:16.630Z,96233.28
2023-03-16T16:33:43.133Z,96231.47
2023-03-16T16:36:21.074Z,96239.00
2023-03-16T16:38:48.887Z,96236.56
2023-03-16T16:41:23.844Z,96238.53
2023-03-16T16:43:51.875Z,96241.97
2023-03-16T16:46:19.630Z,96241.66
2023-03-16T16:48:47.267Z,96239.84
2023-03-16T16:51:18.899Z,96244.28
2023-03-16T16:53:45.949Z,96247.25
2023-03-16T16:56:13.716Z,96247.44
2023-03-16T16:58:40.700Z,96246.78
2023-03-16T17:01:13.796Z,96248.09
2023-03-16T17:03:40.564Z,96258.88
2023-03-16T17:06:07.066Z,96251.97
2023-03-16T17:08:34.262Z,96263.44
2023-03-16T17:11:00.704Z,96263.28
2023-03-16T17:13:38.949Z,96262.72
2023-03-16T17:16:07.322Z,96269.75
2023-03-16T17:18:33.817Z,96268.44
2023-03-16T17:21:00.321Z,96266.59
2023-03-16T17:23:34.592Z,96272.31
2023-03-16T17:26:03.013Z,96268.00
2023-03-16T17:28:32.313Z,96265.88
2023-03-16T17:30:59.005Z,96266.81
2023-03-16T17:33:26.145Z,96268.78
2023-03-16T17:35:52.659Z,96269.25
2023-03-16T17:38:23.342Z,96277.59
2023-03-16T17:40:51.052Z,96274.31
2023-03-16T17:43:19.543Z,96279.34
2023-03-16T17:45:47.139Z,96286.31
2023-03-16T17:48:15.247Z,96294.63
2023-03-16T17:50:41.742Z,96295.09
2023-03-16T17:53:08.310Z,96298.34
2023-03-16T17:55:34.947Z,96302.38
2023-03-16T17:58:01.552Z,96299.03
2023-03-16T18:00:31.879Z,96302.41
2023-03-16T18:03:11.210Z,96311.84
2023-03-16T18:05:38.186Z,96305.88
2023-03-16T18:08:14.073Z,96311.41
2023-03-16T18:10:40.811Z,96309.78
2023-03-16T18:13:13.969Z,96314.31
2023-03-16T18:15:40.432Z,96310.97
2023-03-16T18:18:10.324Z,96312.69
2023-03-16T18:20:37.640Z,96321.25
2023-03-16T18:23:30.342Z,96320.47
2023-03-16T18:26:01.206Z,96325.81
2023-03-16T18:28:28.761Z,96332.31
2023-03-16T18:30:57.310Z,96326.88
2023-03-16T18:33:26.006Z,96331.19
2023-03-16T18:35:53.556Z,96333.69
2023-03-16T18:38:30.638Z,96336.31
2023-03-16T18:41:02.096Z,96337.97
2023-03-16T18:43:29.121Z,96341.28
2023-03-16T18:45:56.001Z,96342.84
2023-03-16T18:48:25.391Z,96347.16
2023-03-16T18:50:52.215Z,96345.13
2023-03-16T18:53:19.923Z,96349.97
2023-03-16T18:55:46.431Z,96348.88
2023-03-16T18:58:15.187Z,96356.63
2023-03-16T19:00:42.134Z,96349.50
2023-03-16T19:03:13.892Z,96356.13
2023-03-16T19:05:40.718Z,96349.00
2023-03-16T19:08:07.341Z,96359.19
2023-03-16T19:10:36.614Z,96357.41
2023-03-16T19:13:03.379Z,96355.38
2023-03-16T19:15:33.925Z,96349.91
2023-03-16T19:18:00.728Z,96347.53
2023-03-16T19:20:28.722Z,96346.34
2023-03-16T19:23:07.197Z,96355.41
2023-03-16T19:25:37.484Z,96364.44
2023-03-16T19:28:05.744Z,96360.50
2023-03-16T19:30:33.423Z,96360.91
2023-03-16T19:33:00.565Z,96369.84
2023-03-16T19:35:41.000Z,96375.34
2023-03-16T19:38:15.558Z,96370.78
2023-03-16T19:40:42.470Z,96382.34
2023-03-16T19:43:15.579Z,96380.66
2023-03-16T19:45:43.016Z,96394.97
2023-03-16T19:48:12.750Z,96390.28
2023-03-16T19:50:39.236Z,96399.44
2023-03-16T19:53:06.250Z,96401.50
2023-03-16T19:55:32.945Z,96398.34
2023-03-16T19:58:01.989Z,96390.00
2023-03-16T20:00:30.206Z,96400.94
2023-03-16T20:02:57.203Z,96399.56
2023-03-16T20:05:25.069Z,96405.03
2023-03-16T20:07:52.324Z,96411.34
2023-03-16T20:10:20.646Z,96405.59
2023-03-16T20:12:48.295Z,96403.38
2023-03-16T20:15:18.332Z,96408.03
2023-03-16T20:17:44.925Z,96411.88
2023-03-16T20:20:22.680Z,96405.41
2023-03-16T20:22:49.673Z,96412.91
2023-03-16T20:25:16.347Z,96411.78
2023-03-16T20:27:43.337Z,96415.88
2023-03-16T20:30:14.682Z,96407.38
2023-03-16T20:32:42.960Z,96412.56
2023-03-16T20:35:17.075Z,96413.69
2023-03-16T20:37:43.731Z,96421.88
2023-03-16T20:40:11.138Z,96421.88
2023-03-16T20:42:37.932Z,96427.34
2023-03-16T20:45:24.017Z,96434.47
2023-03-16T20:47:51.922Z,96433.78
2023-03-16T20:50:20.050Z,96433.06
2023-03-16T20:52:46.569Z,96432.50
2023-03-16T20:55:15.880Z,96438.09
2023-03-16T20:57:43.574Z,96435.88
2023-03-16T21:00:29.474Z,96435.44
2023-03-16T21:02:56.451Z,96441.03
2023-03-16T21:05:23.969Z,96444.69
2023-03-16T21:07:51.451Z,96439.50
2023-03-16T21:10:22.318Z,96444.59
2023-03-16T21:12:58.142Z,96453.34
2023-03-16T21:15:29.504Z,96444.03
2023-03-16T21:18:00.831Z,96443.47
2023-03-16T21:20:29.393Z,96450.44
2023-03-16T21:22:56.294Z,96447.97
2023-03-16T21:25:34.383Z,96446.28
2023-03-16T21:28:02.413Z,96446.56
2023-03-16T21:30:30.741Z,96447.53
2023-03-16T21:32:59.269Z,96446.25
2023-03-16T21:35:32.876Z,96439.75
2023-03-16T21:38:01.973Z,96441.56
2023-03-16T21:40:29.131Z,96440.97
2023-03-16T21:42:55.973Z,96445.03
2023-03-16T21:45:22.462Z,96448.56
2023-03-16T21:47:49.014Z,96437.09
2023-03-16T21:50:22.639Z,96444.78
2023-03-16T21:52:50.259Z,96451.06
2023-03-16T21:55:23.701Z,96448.56
2023-03-16T21:57:51.176Z,96452.13
2023-03-16T22:00:19.514Z,96447.19
2023-03-16T22:02:47.716Z,96461.25
2023-03-16T22:05:24.995Z,96464.25
2023-03-16T22:07:51.525Z,96467.09
2023-03-16T22:10:18.406Z,96462.81
2023-03-16T22:12:44.897Z,96455.03
2023-03-16T22:15:12.465Z,96459.16
2023-03-16T22:17:39.298Z,96455.72
2023-03-16T22:20:15.899Z,96454.81
2023-03-16T22:22:42.561Z,96455.03
2023-03-16T22:25:13.619Z,96455.03
2023-03-16T22:27:40.135Z,96455.28
2023-03-16T22:30:07.107Z,96454.69
2023-03-16T22:32:33.805Z,96458.63
2023-03-16T22:35:00.404Z,96457.22
2023-03-16T22:37:28.598Z,96447.75
2023-03-16T22:39:57.367Z,96450.50
2023-03-16T22:42:37.036Z,96446.38
2023-03-16T22:45:05.649Z,96453.47
2023-03-16T22:47:36.919Z,96449.34
2023-03-16T22:50:03.620Z,96456.44
2023-03-16T22:52:31.115Z,96455.88
2023-03-16T22:54:58.680Z,96451.72
2023-03-16T22:57:25.358Z,96450.91
2023-03-16T22:59:52.259Z,96450.44
2023-03-16T23:02:20.943Z,96454.94
2023-03-16T23:04:47.405Z,96458.47
2023-03-16T23:07:14.157Z,96452.13
2023-03-16T23:09:40.801Z,96452.50
2023-03-16T23:12:19.234Z,96447.41
2023-03-16T23:14:45.675Z,96440.00
2023-03-16T23:17:22.327Z,96444.38
2023-03-16T23:19:48.931Z,96443.66
2023-03-16T23:22:15.457Z,96447.88
2023-03-16T23:24:42.572Z,96443.66
2023-03-16T23:27:17.412Z,96451.69
2023-03-16T23:29:44.246Z,96453.94
2023-03-16T23:32:11.673Z,96459.38
2023-03-16T23:34:38.170Z,96464.09
2023-03-16T23:37:04.638Z,96463.28
2023-03-16T23:39:31.105Z,96458.09
2023-03-16T23:41:57.737Z,96457.84
2023-03-16T23:44:26.315Z,96455.72
2023-03-16T23:46:53.275Z,96455.00
2023-03-16T23:49:24.337Z,96447.47
2023-03-16T23:51:51.811Z,96459.16
2023-03-16T23:54:29.752Z,96454.78
2023-03-16T23:56:57.200Z,96452.66
2023-03-16T23:59:23.845Z,96442.97
